Terminal Aerodrome Forecast
Issued by NWS Birmingham, AL

Home | Current Version | Previous Version | Text Only | Print | Product List | Glossary On
Versions: 1 2 3 4 5 6 7 8 9 10 11 12 13 14 15 16 17
124
FTUS44 KBMX 270825 AAA
TAFBHM
TAF AMD
KBHM 270825Z 2708/2806 17004KT 6SM BR OVC015
      TEMPO 2711/2714 4SM BR OVC006
     FM271500 19012G17KT P6SM BKN030
     FM272100 20012G18KT P6SM VCTS BKN050CB=

USA.gov is the U.S. government's official web portal to all federal, state and local government web resources and services.